createdAt,value
2023-02-26T00:00:12.676Z,6.70
2023-02-26T00:02:59.059Z,5.50
2023-02-26T00:05:25.740Z,7.20
2023-02-26T00:07:52.828Z,4.50
2023-02-26T00:10:19.318Z,6.90
2023-02-26T00:12:46.715Z,4.50
2023-02-26T00:15:14.520Z,6.60
2023-02-26T00:17:44.016Z,6.50
2023-02-26T00:20:11.513Z,4.20
2023-02-26T00:22:41.383Z,7.00
2023-02-26T00:25:09.125Z,6.70
2023-02-26T00:27:36.059Z,5.40
2023-02-26T00:32:31.316Z,4.40
2023-02-26T00:34:58.915Z,5.40
2023-02-26T00:37:25.377Z,5.00
2023-02-26T00:40:01.132Z,3.70
2023-02-26T00:42:27.872Z,5.50
2023-02-26T00:44:54.885Z,4.60
2023-02-26T00:47:39.762Z,5.80
2023-02-26T00:50:19.910Z,5.90
2023-02-26T00:53:05.254Z,5.30
2023-02-26T00:55:32.150Z,5.90
2023-02-26T00:57:58.683Z,5.10
2023-02-26T01:00:25.626Z,5.20
2023-02-26T01:02:52.534Z,6.20
2023-02-26T01:05:19.821Z,4.70
2023-02-26T01:07:46.462Z,3.80
2023-02-26T01:10:13.710Z,3.80
2023-02-26T01:15:07.109Z,3.90
2023-02-26T01:17:39.020Z,3.40
2023-02-26T01:20:26.326Z,4.50
2023-02-26T01:23:28.333Z,4.10
2023-02-26T01:25:54.749Z,3.90
2023-02-26T01:28:21.605Z,5.40
2023-02-26T01:30:48.775Z,4.70
2023-02-26T01:35:45.422Z,4.80
2023-02-26T01:38:31.638Z,5.90
2023-02-26T01:41:10.090Z,5.30
2023-02-26T01:43:57.648Z,5.30
2023-02-26T01:48:56.255Z,5.20
2023-02-26T01:51:45.400Z,5.30
2023-02-26T01:54:13.041Z,5.40
2023-02-26T01:56:40.372Z,7.60
2023-02-26T02:01:38.122Z,2.80
2023-02-26T02:04:06.687Z,5.30
2023-02-26T02:06:33.331Z,3.40
2023-02-26T02:09:02.448Z,2.90
2023-02-26T02:11:29.220Z,4.60
2023-02-26T02:14:08.105Z,4.50
2023-02-26T02:16:53.254Z,4.70
2023-02-26T02:19:23.563Z,4.00
2023-02-26T02:21:52.628Z,5.80
2023-02-26T02:24:19.105Z,7.60
2023-02-26T02:26:51.576Z,6.10
2023-02-26T02:29:37.256Z,4.60
2023-02-26T02:32:09.897Z,4.80
2023-02-26T02:34:41.794Z,3.30
2023-02-26T02:37:17.050Z,5.00
2023-02-26T02:39:43.770Z,5.30
2023-02-26T02:42:13.684Z,5.10
2023-02-26T02:44:42.679Z,4.90
2023-02-26T02:47:10.502Z,3.90
2023-02-26T02:49:41.063Z,6.80
2023-02-26T02:52:13.368Z,4.50
2023-02-26T02:54:41.806Z,6.10
2023-02-26T02:57:20.953Z,5.60
2023-02-26T02:59:50.740Z,5.00
2023-02-26T03:02:27.830Z,5.50
2023-02-26T03:04:54.790Z,4.00
2023-02-26T03:07:21.221Z,3.70
2023-02-26T03:09:48.014Z,3.40
2023-02-26T03:12:14.557Z,3.40
2023-02-26T03:14:41.951Z,5.80
2023-02-26T03:19:44.044Z,3.30
2023-02-26T03:22:26.131Z,3.00
2023-02-26T03:24:52.603Z,3.30
2023-02-26T03:27:22.172Z,5.50
2023-02-26T03:29:52.611Z,2.10
2023-02-26T03:32:23.526Z,4.60
2023-02-26T03:34:59.095Z,1.90
2023-02-26T03:37:38.110Z,3.60
2023-02-26T03:40:16.496Z,2.90
2023-02-26T03:43:06.616Z,3.10
2023-02-26T03:45:35.461Z,2.30
2023-02-26T03:48:04.604Z,2.90
2023-02-26T03:50:37.172Z,3.30
2023-02-26T03:53:06.914Z,3.70
2023-02-26T03:55:43.228Z,3.30
2023-02-26T03:58:09.723Z,3.90
2023-02-26T04:00:37.644Z,1.60
2023-02-26T04:03:07.056Z,5.70
2023-02-26T04:05:39.908Z,5.30
2023-02-26T04:08:06.236Z,3.50
2023-02-26T04:10:44.616Z,2.20
2023-02-26T04:13:11.617Z,3.90
2023-02-26T04:15:38.112Z,2.40
2023-02-26T04:18:04.612Z,3.20
2023-02-26T04:20:31.055Z,4.80
2023-02-26T04:22:57.574Z,3.20
2023-02-26T04:25:24.187Z,2.60
2023-02-26T04:27:50.656Z,3.30
2023-02-26T04:30:17.668Z,4.40
2023-02-26T04:32:44.306Z,3.00
2023-02-26T04:35:12.286Z,3.60
2023-02-26T04:37:39.438Z,3.40
2023-02-26T04:40:07.184Z,4.10
2023-02-26T04:42:33.815Z,3.60
2023-02-26T04:45:00.891Z,4.50
2023-02-26T04:47:27.497Z,5.20
2023-02-26T04:49:54.036Z,4.00
2023-02-26T04:52:20.855Z,5.20
2023-02-26T04:54:47.800Z,3.30
2023-02-26T04:57:14.807Z,3.90
2023-02-26T04:59:41.712Z,2.50
2023-02-26T05:02:08.335Z,2.60
2023-02-26T05:04:34.927Z,3.50
2023-02-26T05:07:01.624Z,4.00
2023-02-26T05:09:28.158Z,3.90
2023-02-26T05:11:54.649Z,4.50
2023-02-26T05:14:21.127Z,4.20
2023-02-26T05:16:47.882Z,3.80
2023-02-26T05:19:14.623Z,4.20
2023-02-26T05:21:41.013Z,4.00
2023-02-26T05:24:08.017Z,2.00
2023-02-26T05:26:34.436Z,4.60
2023-02-26T05:29:01.685Z,1.70
2023-02-26T05:33:55.702Z,4.00
2023-02-26T05:36:22.326Z,4.30
2023-02-26T05:38:49.025Z,2.00
2023-02-26T05:41:15.559Z,3.60
2023-02-26T05:43:42.061Z,3.60
2023-02-26T05:46:09.158Z,6.90
2023-02-26T05:51:02.456Z,4.20
2023-02-26T05:53:29.981Z,4.30
2023-02-26T05:55:57.154Z,2.90
2023-02-26T05:58:23.770Z,1.30
2023-02-26T06:00:50.398Z,3.30
2023-02-26T06:03:17.194Z,2.50
2023-02-26T06:05:43.771Z,3.80
2023-02-26T06:08:11.637Z,2.20
2023-02-26T06:10:38.274Z,4.60
2023-02-26T06:13:04.805Z,3.60
2023-02-26T06:15:31.752Z,3.80
2023-02-26T06:17:58.791Z,5.70
2023-02-26T06:22:52.377Z,14.70
2023-02-26T06:25:18.917Z,4.00
2023-02-26T06:27:45.553Z,3.80
2023-02-26T06:30:12.398Z,3.00
2023-02-26T06:32:39.128Z,3.30
2023-02-26T06:35:05.953Z,4.20
2023-02-26T06:37:35.771Z,5.20
2023-02-26T06:40:03.756Z,7.20
2023-02-26T06:42:30.595Z,6.80
2023-02-26T06:44:57.660Z,1.50
2023-02-26T06:47:24.389Z,6.90
2023-02-26T06:49:51.022Z,3.90
2023-02-26T06:52:18.075Z,3.60
2023-02-26T06:54:44.714Z,2.30
2023-02-26T06:57:13.124Z,3.50
2023-02-26T06:59:40.018Z,4.70
2023-02-26T07:02:06.867Z,4.10
2023-02-26T07:04:34.632Z,3.50
2023-02-26T07:07:01.031Z,2.70
2023-02-26T07:09:27.612Z,2.00
2023-02-26T07:11:54.255Z,3.90
2023-02-26T07:14:20.975Z,3.20
2023-02-26T07:16:48.110Z,3.40
2023-02-26T07:19:14.966Z,2.50
2023-02-26T07:21:41.690Z,4.20
2023-02-26T07:24:08.752Z,4.20
2023-02-26T07:26:35.451Z,3.50
2023-02-26T07:29:02.241Z,5.00
2023-02-26T07:31:29.188Z,3.60
2023-02-26T07:33:56.125Z,4.00
2023-02-26T07:36:22.916Z,3.80
2023-02-26T07:38:49.802Z,3.90
2023-02-26T07:41:16.949Z,4.30
2023-02-26T07:43:43.587Z,4.70
2023-02-26T07:46:10.122Z,3.90
2023-02-26T07:48:36.764Z,3.50
2023-02-26T07:51:04.418Z,6.40
2023-02-26T07:53:31.152Z,3.70
2023-02-26T07:55:58.010Z,5.20
2023-02-26T07:58:25.124Z,4.10
2023-02-26T08:00:52.394Z,4.40
2023-02-26T08:03:19.636Z,6.20
2023-02-26T08:08:12.926Z,4.30
2023-02-26T08:10:42.136Z,4.50
2023-02-26T08:13:09.472Z,4.40
2023-02-26T08:15:36.145Z,5.50
2023-02-26T08:18:03.056Z,2.90
2023-02-26T08:20:29.791Z,5.80
2023-02-26T08:22:56.483Z,4.70
2023-02-26T08:25:22.993Z,3.80
2023-02-26T08:27:49.808Z,5.40
2023-02-26T08:30:16.756Z,5.10
2023-02-26T08:32:43.534Z,3.50
2023-02-26T08:37:37.831Z,3.10
2023-02-26T08:40:05.562Z,4.00
2023-02-26T08:42:32.494Z,3.90
2023-02-26T08:44:59.336Z,3.70
2023-02-26T08:47:29.083Z,2.80
2023-02-26T08:49:57.043Z,5.30
2023-02-26T08:52:24.599Z,6.30
2023-02-26T08:54:51.755Z,5.90
2023-02-26T08:57:20.053Z,3.10
2023-02-26T08:59:47.353Z,4.80
2023-02-26T09:02:14.174Z,5.90
2023-02-26T09:04:41.338Z,4.30
2023-02-26T09:07:08.385Z,4.40
2023-02-26T09:09:36.665Z,5.00
2023-02-26T09:12:04.164Z,5.10
2023-02-26T09:14:30.860Z,5.00
2023-02-26T09:16:58.349Z,3.90
2023-02-26T09:19:25.173Z,4.50
2023-02-26T09:21:51.912Z,3.00
2023-02-26T09:24:18.746Z,5.60
2023-02-26T09:26:45.371Z,4.80
2023-02-26T09:29:13.772Z,3.20
2023-02-26T09:31:40.705Z,4.40
2023-02-26T09:34:11.569Z,4.40
2023-02-26T09:36:40.830Z,5.20
2023-02-26T09:39:08.227Z,4.80
2023-02-26T09:41:41.273Z,4.90
2023-02-26T09:44:14.496Z,4.80
2023-02-26T09:46:44.379Z,7.40
2023-02-26T09:49:30.452Z,5.70
2023-02-26T09:52:03.161Z,5.90
2023-02-26T09:54:32.148Z,5.50
2023-02-26T09:57:00.135Z,4.60
2023-02-26T09:59:29.412Z,5.60
2023-02-26T10:02:07.099Z,5.50
2023-02-26T10:04:33.768Z,5.30
2023-02-26T10:07:07.909Z,4.20
2023-02-26T10:09:45.455Z,9.30
2023-02-26T10:12:24.483Z,7.00
2023-02-26T10:15:10.479Z,5.70
2023-02-26T10:17:56.466Z,5.90
2023-02-26T10:20:25.622Z,4.90
2023-02-26T10:22:55.574Z,4.50
2023-02-26T10:25:25.405Z,6.60
2023-02-26T10:28:01.341Z,7.50
2023-02-26T10:30:42.343Z,6.00
2023-02-26T10:33:32.255Z,6.90
2023-02-26T10:36:08.548Z,5.40
2023-02-26T10:38:35.597Z,5.50
2023-02-26T10:41:11.037Z,4.20
2023-02-26T10:43:43.008Z,7.80
2023-02-26T10:46:18.671Z,7.20
2023-02-26T10:48:55.534Z,8.40
2023-02-26T10:51:25.621Z,6.70
2023-02-26T10:53:56.484Z,7.30
2023-02-26T10:56:28.739Z,6.00
2023-02-26T10:58:55.492Z,7.50
2023-02-26T11:01:24.429Z,6.50
2023-02-26T11:04:00.044Z,11.00
2023-02-26T11:06:30.631Z,8.60
2023-02-26T11:08:58.727Z,5.30
2023-02-26T11:11:40.529Z,8.20
2023-02-26T11:14:08.304Z,4.70
2023-02-26T11:16:35.699Z,6.90
2023-02-26T11:19:04.987Z,9.10
2023-02-26T11:21:38.242Z,7.60
2023-02-26T11:24:07.432Z,8.30
2023-02-26T11:26:35.518Z,6.10
2023-02-26T11:29:02.960Z,6.50
2023-02-26T11:34:04.573Z,6.60
2023-02-26T11:36:32.803Z,6.00
2023-02-26T11:39:07.479Z,6.80
2023-02-26T11:41:37.968Z,7.70
2023-02-26T11:44:07.049Z,8.20
2023-02-26T11:46:38.126Z,5.60
2023-02-26T11:49:04.651Z,6.10
2023-02-26T11:51:31.478Z,5.20
2023-02-26T11:54:01.442Z,9.60
2023-02-26T11:56:43.377Z,8.50
2023-02-26T11:59:21.756Z,5.70
2023-02-26T12:01:50.465Z,8.80
2023-02-26T12:04:22.932Z,7.60
2023-02-26T12:06:52.035Z,8.10
2023-02-26T12:09:19.593Z,7.30
2023-02-26T12:11:46.441Z,10.40
2023-02-26T12:14:31.812Z,6.60
2023-02-26T12:17:08.892Z,7.20
2023-02-26T12:22:31.425Z,7.50
2023-02-26T12:25:03.931Z,5.80
2023-02-26T12:27:43.155Z,4.50
2023-02-26T12:30:23.289Z,5.90
2023-02-26T12:33:02.747Z,7.30
2023-02-26T12:35:48.241Z,5.50
2023-02-26T12:38:21.325Z,6.30
2023-02-26T12:41:00.859Z,6.20
2023-02-26T12:43:28.558Z,6.30
2023-02-26T12:46:08.272Z,9.10
2023-02-26T12:48:53.843Z,6.60
2023-02-26T12:51:30.922Z,7.40
2023-02-26T12:54:00.957Z,8.90
2023-02-26T12:56:46.896Z,5.90
2023-02-26T12:59:17.676Z,5.20
2023-02-26T13:02:04.790Z,5.70
2023-02-26T13:12:12.448Z,6.50
2023-02-26T13:14:54.680Z,4.40
2023-02-26T13:17:46.481Z,7.00
2023-02-26T13:20:18.727Z,4.40
2023-02-26T13:22:48.144Z,5.20
2023-02-26T13:25:15.278Z,5.40
2023-02-26T13:27:43.448Z,5.60
2023-02-26T13:30:17.470Z,6.40
2023-02-26T13:32:45.255Z,7.60
2023-02-26T13:35:26.297Z,4.90
2023-02-26T13:37:54.876Z,7.00
2023-02-26T13:40:24.595Z,10.20
2023-02-26T13:43:14.961Z,10.80
2023-02-26T13:45:50.499Z,8.50
2023-02-26T13:48:17.565Z,10.10
2023-02-26T13:50:44.515Z,5.80
2023-02-26T13:53:23.547Z,12.20
2023-02-26T13:55:54.932Z,12.10
2023-02-26T13:58:23.081Z,12.10
2023-02-26T14:01:04.430Z,9.90
2023-02-26T14:03:36.201Z,9.50
2023-02-26T14:06:21.899Z,9.50
2023-02-26T14:08:50.186Z,6.10
2023-02-26T14:11:17.104Z,5.40
2023-02-26T14:14:03.714Z,6.30
2023-02-26T14:16:34.631Z,6.80
2023-02-26T14:19:18.947Z,4.00
2023-02-26T14:21:50.353Z,5.10
2023-02-26T14:24:43.095Z,4.70
2023-02-26T14:27:16.182Z,5.70
2023-02-26T14:29:44.861Z,6.30
2023-02-26T14:32:14.028Z,7.50
2023-02-26T14:34:45.786Z,4.00
2023-02-26T14:37:14.814Z,7.60
2023-02-26T14:39:45.438Z,5.80
2023-02-26T14:42:16.274Z,6.90
2023-02-26T14:44:44.704Z,6.80
2023-02-26T14:47:12.122Z,6.00
2023-02-26T14:52:12.048Z,5.60
2023-02-26T14:54:48.403Z,5.20
2023-02-26T14:57:21.412Z,8.60
2023-02-26T14:59:58.275Z,5.00
2023-02-26T15:02:54.759Z,5.50
2023-02-26T15:05:30.875Z,6.90
2023-02-26T15:08:06.731Z,6.20
2023-02-26T15:10:39.805Z,5.70
2023-02-26T15:13:25.593Z,7.00
2023-02-26T15:16:10.741Z,6.20
2023-02-26T15:18:57.928Z,9.10
2023-02-26T15:21:43.568Z,7.30
2023-02-26T15:24:11.428Z,9.10
2023-02-26T15:26:41.891Z,8.30
2023-02-26T15:29:11.364Z,7.40
2023-02-26T15:31:43.739Z,7.30
2023-02-26T15:34:12.645Z,9.40
2023-02-26T15:36:42.959Z,9.40
2023-02-26T15:39:10.004Z,8.40
2023-02-26T15:41:38.167Z,8.70
2023-02-26T15:44:06.854Z,7.60
2023-02-26T15:46:36.385Z,7.40
2023-02-26T15:49:22.752Z,8.00
2023-02-26T15:51:50.292Z,5.70
2023-02-26T15:54:18.900Z,5.80
2023-02-26T15:56:47.317Z,9.50
2023-02-26T15:59:20.600Z,6.00
2023-02-26T16:01:48.825Z,6.40
2023-02-26T16:04:17.320Z,8.50
2023-02-26T16:06:50.914Z,8.10
2023-02-26T16:09:22.367Z,11.00
2023-02-26T16:11:51.312Z,8.10
2023-02-26T16:14:23.120Z,9.30
2023-02-26T16:16:51.803Z,6.00
2023-02-26T16:19:20.707Z,8.70
2023-02-26T16:21:47.884Z,8.80
2023-02-26T16:24:17.355Z,8.10
2023-02-26T16:26:47.479Z,8.80
2023-02-26T16:29:24.955Z,9.60
2023-02-26T16:31:54.234Z,10.40
2023-02-26T16:34:31.126Z,10.90
2023-02-26T16:37:09.439Z,8.60
2023-02-26T16:39:42.830Z,10.70
2023-02-26T16:42:13.974Z,9.30
2023-02-26T16:44:49.437Z,9.40
2023-02-26T16:47:18.164Z,11.60
2023-02-26T16:49:45.050Z,11.50
2023-02-26T16:52:17.591Z,7.50
2023-02-26T16:54:48.268Z,8.00
2023-02-26T16:57:20.002Z,7.10
2023-02-26T16:59:51.877Z,7.20
2023-02-26T17:02:21.777Z,9.20
2023-02-26T17:04:57.744Z,7.70
2023-02-26T17:07:32.784Z,8.30
2023-02-26T17:10:07.127Z,7.20
2023-02-26T17:12:38.122Z,8.50
2023-02-26T17:15:28.719Z,11.40
2023-02-26T17:17:59.552Z,8.00
2023-02-26T17:20:29.097Z,8.30
2023-02-26T17:22:58.288Z,8.50
2023-02-26T17:25:30.031Z,13.60
2023-02-26T17:27:58.601Z,9.20
2023-02-26T17:30:29.844Z,11.30
2023-02-26T17:32:57.918Z,12.70
2023-02-26T17:35:25.853Z,9.90
2023-02-26T17:37:54.994Z,8.40
2023-02-26T17:40:24.188Z,10.60
2023-02-26T17:42:52.094Z,8.30
2023-02-26T17:45:20.128Z,8.80
2023-02-26T17:47:49.871Z,9.00
2023-02-26T17:50:24.090Z,8.20
2023-02-26T17:52:52.130Z,8.80
2023-02-26T17:55:20.380Z,11.50
2023-02-26T17:57:49.377Z,10.30
2023-02-26T18:00:16.976Z,9.40
2023-02-26T18:05:12.679Z,9.50
2023-02-26T18:10:07.685Z,14.30
2023-02-26T18:12:34.950Z,12.30
2023-02-26T18:15:03.034Z,12.50
2023-02-26T18:17:33.738Z,16.60
2023-02-26T18:20:07.264Z,15.30
2023-02-26T18:22:34.485Z,12.60
2023-02-26T18:25:02.780Z,12.60
2023-02-26T18:27:31.082Z,8.20
2023-02-26T18:29:58.901Z,8.90
2023-02-26T18:34:55.054Z,9.40
2023-02-26T18:37:23.934Z,13.20
2023-02-26T18:39:54.780Z,11.90
2023-02-26T18:42:23.154Z,10.30
2023-02-26T18:44:51.022Z,8.90
2023-02-26T18:47:19.015Z,9.90
2023-02-26T18:49:46.536Z,9.60
2023-02-26T18:52:13.790Z,12.40
2023-02-26T18:54:41.045Z,10.90
2023-02-26T18:59:35.675Z,12.20
2023-02-26T19:02:04.241Z,12.20
2023-02-26T19:04:41.015Z,18.10
2023-02-26T19:07:08.585Z,12.00
2023-02-26T19:09:37.153Z,8.60
2023-02-26T19:12:06.233Z,8.30
2023-02-26T19:14:36.812Z,11.00
2023-02-26T19:17:05.455Z,9.60
2023-02-26T19:19:32.828Z,8.30
2023-02-26T19:22:00.674Z,7.90
2023-02-26T19:24:27.519Z,7.60
2023-02-26T19:26:56.198Z,9.50
2023-02-26T19:29:23.964Z,8.70
2023-02-26T19:34:19.698Z,11.50
2023-02-26T19:36:48.979Z,12.00
2023-02-26T19:39:20.253Z,9.60
2023-02-26T19:41:53.536Z,9.30
2023-02-26T19:44:21.722Z,13.60
2023-02-26T19:46:49.864Z,10.40
2023-02-26T19:49:17.971Z,10.40
2023-02-26T19:51:45.838Z,10.70
2023-02-26T19:56:41.243Z,9.00
2023-02-26T19:59:10.387Z,10.30
2023-02-26T20:01:43.684Z,10.00
2023-02-26T20:04:10.873Z,11.80
2023-02-26T20:06:39.766Z,12.50
2023-02-26T20:09:09.888Z,10.60
2023-02-26T20:11:37.851Z,23.40
2023-02-26T20:14:05.318Z,13.10
2023-02-26T20:16:32.564Z,8.30
2023-02-26T20:21:26.773Z,12.30
2023-02-26T20:23:53.906Z,10.60
2023-02-26T20:26:20.861Z,9.20
2023-02-26T20:28:49.873Z,7.30
2023-02-26T20:31:17.515Z,9.50
2023-02-26T20:36:14.678Z,8.70
2023-02-26T20:41:10.604Z,8.10
2023-02-26T20:43:38.430Z,7.80
2023-02-26T20:46:05.794Z,6.50
2023-02-26T20:48:34.877Z,9.00
2023-02-26T20:51:02.881Z,7.00
2023-02-26T20:56:32.829Z,9.50
2023-02-26T20:59:01.316Z,9.50
2023-02-26T21:01:35.002Z,10.30
2023-02-26T21:04:04.094Z,9.80
2023-02-26T21:06:31.955Z,11.00
2023-02-26T21:09:01.057Z,10.90
2023-02-26T21:11:31.792Z,10.00
2023-02-26T21:14:01.471Z,9.20
2023-02-26T21:16:29.908Z,10.30
2023-02-26T21:19:00.013Z,12.90
2023-02-26T21:21:27.260Z,12.40
2023-02-26T21:26:24.024Z,10.10
2023-02-26T21:28:53.032Z,11.90
2023-02-26T21:31:21.413Z,12.10
2023-02-26T21:33:49.845Z,10.30
2023-02-26T21:36:17.215Z,9.60
2023-02-26T21:38:44.316Z,11.30
2023-02-26T21:41:15.109Z,9.70
2023-02-26T21:43:42.344Z,7.70
2023-02-26T21:46:09.717Z,10.20
2023-02-26T21:48:36.946Z,9.50
2023-02-26T21:51:04.510Z,10.90
2023-02-26T21:53:31.550Z,9.30
2023-02-26T21:55:58.717Z,13.30
2023-02-26T21:58:26.146Z,9.80
2023-02-26T22:00:53.194Z,11.80
2023-02-26T22:03:20.568Z,8.10
2023-02-26T22:05:50.189Z,10.80
2023-02-26T22:08:17.226Z,9.40
2023-02-26T22:10:48.560Z,11.70
2023-02-26T22:13:15.706Z,11.50
2023-02-26T22:15:45.915Z,10.90
2023-02-26T22:18:13.084Z,13.00
2023-02-26T22:20:40.321Z,9.40
2023-02-26T22:23:06.927Z,11.50
2023-02-26T22:25:33.718Z,11.00
2023-02-26T22:28:00.235Z,11.10
2023-02-26T22:30:26.839Z,9.40
2023-02-26T22:32:53.497Z,10.40
2023-02-26T22:35:20.005Z,8.90
2023-02-26T22:37:46.888Z,9.60
2023-02-26T22:40:14.557Z,10.50
2023-02-26T22:42:42.264Z,10.50
2023-02-26T22:45:11.737Z,8.10
2023-02-26T22:47:39.276Z,9.30
2023-02-26T22:50:06.337Z,9.40
2023-02-26T22:52:34.507Z,9.00
2023-02-26T22:55:01.702Z,10.20
2023-02-26T22:57:28.198Z,10.40
2023-02-26T22:59:55.009Z,10.20
2023-02-26T23:02:21.854Z,11.80
2023-02-26T23:04:48.700Z,9.20
2023-02-26T23:07:15.740Z,10.70
2023-02-26T23:09:44.827Z,8.10
2023-02-26T23:12:12.025Z,7.40
2023-02-26T23:14:41.297Z,9.30
2023-02-26T23:17:10.354Z,7.40
2023-02-26T23:19:38.288Z,9.80
2023-02-26T23:22:05.698Z,7.80
2023-02-26T23:29:26.747Z,7.00
2023-02-26T23:34:20.959Z,8.30
2023-02-26T23:36:48.590Z,10.10
2023-02-26T23:41:43.605Z,8.60
2023-02-26T23:44:10.315Z,7.70
2023-02-26T23:46:37.258Z,8.60
2023-02-26T23:49:04.365Z,10.00
2023-02-26T23:51:31.382Z,9.60
2023-02-26T23:53:58.130Z,7.70
2023-02-26T23:56:25.989Z,10.00
2023-02-26T23:58:52.823Z,8.40
